Time;durP1;ratioP1;P1;durP2;ratioP2;P2;SDS_P1;SDS_P2;PMS_P1;PMS_P2;Temp;Humidity;BMP_temperature;BMP_pressure;BME280_temperature;BME280_humidity;BME280_pressure;Samples;Min_cycle;Max_cycle;Signal;HPM_P1;HPM_P2
2022/11/30 00:00:16;;;;;;;38.90;22.43;;;;;;;8.57;59.22;100088.91;10443676;28;20248;-69
2022/11/30 00:05:19;;;;;;;38.47;20.83;;;;;;;9.76;56.52;100053.63;10443428;28;20772;-69
2022/11/30 00:10:21;;;;;;;35.53;20.30;;;;;;;8.87;58.39;100102.66;10444958;28;20289;-69
2022/11/30 00:15:23;;;;;;;33.20;21.03;;;;;;;9.62;56.16;100030.31;10448350;28;20247;-69
2022/11/30 00:20:25;;;;;;;39.07;19.90;;;;;;;10.27;55.40;100020.34;10450062;28;20239;-69
2022/11/30 00:25:26;;;;;;;36.10;19.40;;;;;;;8.84;57.25;100098.44;10451427;28;20246;-68
2022/11/30 00:30:29;;;;;;;36.90;19.23;;;;;;;9.93;55.31;100042.91;10450329;28;20239;-69
2022/11/30 00:35:31;;;;;;;42.17;19.43;;;;;;;9.42;55.24;100096.63;10449992;28;20231;-69
2022/11/30 00:40:32;;;;;;;37.33;18.97;;;;;;;9.59;56.19;100102.78;10449438;28;20330;-69
2022/11/30 00:45:34;;;;;;;37.40;19.57;;;;;;;8.73;57.33;100120.94;10449646;28;20290;-69
2022/11/30 00:50:36;;;;;;;42.00;18.73;;;;;;;9.38;56.37;100079.25;10458512;28;20681;-69
2022/11/30 00:55:37;;;;;;;35.43;18.37;;;;;;;8.47;57.73;100118.38;10450003;28;20235;-69
2022/11/30 01:00:39;;;;;;;42.57;19.13;;;;;;;8.45;58.62;100117.69;10449188;28;20716;-69
2022/11/30 01:05:44;;;;;;;35.70;19.03;;;;;;;8.20;58.13;100114.13;10449761;28;20244;-69
2022/11/30 01:10:52;;;;;;;37.80;19.77;;;;;;;8.00;58.80;100119.72;10448365;28;20236;-69
2022/11/30 01:15:53;;;;;;;38.13;18.60;;;;;;;7.99;58.23;100127.88;10444467;28;20236;-68
2022/11/30 01:20:55;;;;;;;41.33;17.93;;;;;;;8.25;57.88;100109.13;10448638;28;20263;-69
2022/11/30 01:25:57;;;;;;;38.60;20.00;;;;;;;8.20;57.70;100108.78;10447439;28;20243;-69
2022/11/30 01:31:04;;;;;;;40.60;17.93;;;;;;;8.32;57.36;100110.19;10448078;28;20793;-69
2022/11/30 01:36:10;;;;;;;34.37;17.17;;;;;;;8.27;57.86;100129.31;10443514;28;20240;-68
2022/11/30 01:41:17;;;;;;;37.87;17.67;;;;;;;8.64;56.65;100101.44;10447960;28;20243;-68
2022/11/30 01:46:43;;;;;;;33.70;16.63;;;;;;;8.34;57.68;100129.50;10447134;28;20236;-69
2022/11/30 01:51:57;;;;;;;32.07;17.43;;;;;;;8.61;57.18;100138.28;10458412;28;20237;-68
2022/11/30 01:57:06;;;;;;;38.87;17.73;;;;;;;8.97;55.57;100125.50;10445714;28;20664;-68
2022/11/30 02:02:08;;;;;;;33.63;17.47;;;;;;;9.10;56.14;100161.56;10443108;28;20239;-68
2022/11/30 02:07:10;;;;;;;28.13;16.13;;;;;;;9.42;55.39;100122.53;10446269;28;20245;-69
2022/11/30 02:12:25;;;;;;;37.20;18.13;;;;;;;9.66;55.38;100106.44;10446336;28;20232;-69
2022/11/30 02:17:36;;;;;;;35.23;17.47;;;;;;;8.47;55.83;100143.22;10444647;28;20235;-68
2022/11/30 02:22:47;;;;;;;31.80;17.80;;;;;;;9.86;54.97;100082.03;10444741;28;20678;-68
2022/11/30 02:28:15;;;;;;;31.93;17.87;;;;;;;9.58;54.27;100080.59;10443888;28;20240;-69
2022/11/30 02:33:26;;;;;;;37.13;17.13;;;;;;;9.62;55.15;100137.19;10443009;28;20238;-69
2022/11/30 02:38:28;;;;;;;33.53;16.90;;;;;;;10.00;53.00;100086.66;10444266;28;20762;-68
2022/11/30 02:43:31;;;;;;;39.37;17.90;;;;;;;8.59;56.99;100199.78;10445474;28;20238;-68
2022/11/30 02:48:33;;;;;;;36.43;17.57;;;;;;;9.14;55.45;100145.03;10448968;28;20289;-69
2022/11/30 02:53:35;;;;;;;40.87;17.87;;;;;;;9.44;55.02;100141.88;10452170;28;20231;-69
2022/11/30 02:58:38;;;;;;;33.13;18.00;;;;;;;8.60;55.52;100148.09;10445400;28;20247;-69
2022/11/30 03:03:40;;;;;;;36.27;17.67;;;;;;;9.58;54.75;100114.47;10444835;28;20232;-69
2022/11/30 03:08:41;;;;;;;39.43;18.60;;;;;;;8.92;56.22;100154.53;10445222;28;20728;-69
2022/11/30 03:13:43;;;;;;;36.50;16.53;;;;;;;9.38;55.89;100122.00;10443116;28;20259;-69
2022/11/30 03:18:45;;;;;;;35.47;16.43;;;;;;;9.27;55.67;100123.19;10443942;28;20593;-69
2022/11/30 03:23:46;;;;;;;35.20;17.90;;;;;;;9.30;55.30;100120.19;10444241;28;20227;-69
2022/11/30 03:28:48;;;;;;;32.43;16.87;;;;;;;8.41;56.30;100154.53;10442048;28;20247;-66
2022/11/30 03:33:49;;;;;;;38.20;17.90;;;;;;;9.01;55.82;100166.03;10444854;28;20232;-69
2022/11/30 03:38:51;;;;;;;36.47;17.50;;;;;;;9.22;55.25;100133.53;10444003;28;20270;-67
2022/11/30 03:43:53;;;;;;;36.93;18.63;;;;;;;9.54;54.96;100121.16;10443607;28;20236;-69
2022/11/30 03:48:55;;;;;;;36.87;17.67;;;;;;;8.83;56.59;100169.66;10455623;28;20640;-67
2022/11/30 03:53:56;;;;;;;42.57;18.27;;;;;;;9.24;56.23;100131.53;10460006;28;20241;-66
2022/11/30 03:58:58;;;;;;;44.73;19.63;;;;;;;10.41;53.49;100091.81;10451259;28;20767;-67
2022/11/30 04:04:00;;;;;;;36.73;18.83;;;;;;;9.45;54.92;100138.19;10451321;28;20247;-69
2022/11/30 04:09:01;;;;;;;38.17;19.33;;;;;;;9.14;56.08;100171.72;10450691;28;20274;-69
2022/11/30 04:14:03;;;;;;;40.23;19.07;;;;;;;8.31;56.52;100155.66;10459615;28;20236;-69
2022/11/30 04:19:05;;;;;;;43.40;18.90;;;;;;;9.57;54.97;100131.50;10450378;28;20239;-67
2022/11/30 04:24:07;;;;;;;39.53;19.77;;;;;;;10.14;54.02;100111.81;10451409;28;20232;-67
2022/11/30 04:29:08;;;;;;;43.43;19.03;;;;;;;8.99;55.70;100186.75;10449708;28;20247;-67
2022/11/30 04:34:10;;;;;;;37.20;18.77;;;;;;;9.29;55.34;100129.19;10450641;28;20229;-69
2022/11/30 04:39:12;;;;;;;40.50;18.87;;;;;;;9.77;53.96;100094.56;10449270;28;20236;-68
2022/11/30 04:44:13;;;;;;;39.77;18.30;;;;;;;8.97;56.10;100194.91;10448767;28;20228;-67
2022/11/30 04:49:15;;;;;;;41.67;18.80;;;;;;;8.73;57.29;100200.16;10449760;28;20964;-68
2022/11/30 04:54:17;;;;;;;41.87;20.43;;;;;;;9.38;55.81;100136.22;10449304;28;20235;-68
2022/11/30 04:59:18;;;;;;;52.63;20.67;;;;;;;9.26;55.74;100136.72;10447820;28;20236;-67
2022/11/30 05:04:20;;;;;;;44.47;21.63;;;;;;;8.73;56.68;100184.16;10448764;28;20228;-69
2022/11/30 05:09:22;;;;;;;50.50;21.03;;;;;;;8.92;57.00;100172.38;10447532;28;20290;-68
2022/11/30 05:14:23;;;;;;;56.03;21.03;;;;;;;7.99;58.80;100176.66;10447769;28;20227;-67
2022/11/30 05:19:25;;;;;;;51.60;20.53;;;;;;;8.98;56.34;100123.69;10446513;28;20244;-67
2022/11/30 05:24:27;;;;;;;50.87;20.40;;;;;;;8.75;55.83;100145.63;10448339;28;20875;-67
2022/11/30 05:29:28;;;;;;;41.50;20.03;;;;;;;8.28;57.08;100170.16;10428545;28;20246;-67
2022/11/30 05:34:30;;;;;;;49.33;21.20;;;;;;;9.11;56.15;100126.72;10448356;28;20657;-68
2022/11/30 05:39:49;;;;;;;51.70;20.83;;;;;;;8.82;55.70;100137.81;10430220;28;20289;-67
2022/11/30 05:44:51;;;;;;;46.90;21.23;;;;;;;9.91;55.00;100127.78;10448379;28;20231;-67
2022/11/30 05:49:53;;;;;;;43.53;21.07;;;;;;;9.00;55.42;100135.03;10452516;28;20240;-68
2022/11/30 05:54:54;;;;;;;47.23;21.83;;;;;;;9.33;54.92;100165.25;10451488;28;20670;-67
2022/11/30 05:59:56;;;;;;;52.77;21.27;;;;;;;9.89;54.50;100137.84;10446339;28;20228;-67
2022/11/30 06:04:57;;;;;;;46.13;20.43;;;;;;;7.68;58.53;100160.31;10446558;28;20286;-67
2022/11/30 06:09:59;;;;;;;61.47;21.70;;;;;;;8.75;56.64;100204.34;10445842;28;20734;-67
2022/11/30 06:15:01;;;;;;;52.37;21.97;;;;;;;8.45;56.97;100195.06;10453365;28;20204;-67
2022/11/30 06:20:04;;;;;;;51.50;20.37;;;;;;;8.82;56.29;100167.16;10458064;28;20239;-67
2022/11/30 06:25:06;;;;;;;53.97;21.80;;;;;;;9.36;55.64;100140.03;10450712;28;20766;-67
2022/11/30 06:30:09;;;;;;;50.63;22.37;;;;;;;9.27;55.89;100160.56;10445595;28;20296;-67
2022/11/30 06:35:10;;;;;;;56.90;24.33;;;;;;;8.82;56.50;100201.84;10446680;28;20232;-67
2022/11/30 06:40:12;;;;;;;58.27;24.60;;;;;;;8.81;56.37;100195.69;10445083;28;20239;-67
2022/11/30 06:45:14;;;;;;;60.73;24.00;;;;;;;8.18;57.67;100180.91;10446087;28;20233;-68
2022/11/30 06:50:16;;;;;;;59.27;23.37;;;;;;;8.85;57.01;100180.19;10457228;28;20239;-67
2022/11/30 06:55:17;;;;;;;71.63;27.10;;;;;;;8.61;57.05;100197.78;10447779;28;20238;-68
2022/11/30 07:00:19;;;;;;;66.47;26.80;;;;;;;9.20;56.75;100167.59;10460807;28;20288;-67
2022/11/30 07:05:21;;;;;;;120.17;60.67;;;;;;;9.34;56.21;100142.88;10427349;28;20240;-67
2022/11/30 07:10:22;;;;;;;73.13;24.57;;;;;;;9.65;56.00;100138.66;10445084;28;20841;-67
2022/11/30 07:15:24;;;;;;;76.80;25.30;;;;;;;9.08;55.56;100147.53;10443093;28;20240;-67
2022/11/30 07:20:26;;;;;;;55.47;22.43;;;;;;;10.74;52.60;100145.13;10448021;28;20246;-67
2022/11/30 07:30:47;;;;;;;483.07;179.33;;;;;;;8.96;56.22;100229.75;10450403;28;20813;-67
2022/11/30 07:35:52;;;;;;;244.50;123.57;;;;;;;9.20;55.41;100167.59;10453488;28;20232;-67
2022/11/30 07:40:53;;;;;;;57.53;26.60;;;;;;;8.94;55.95;100213.91;10452553;28;20627;-66
2022/11/30 07:45:55;;;;;;;53.47;23.13;;;;;;;9.71;55.10;100167.41;10451831;28;20239;-69
2022/11/30 07:51:09;;;;;;;47.13;22.33;;;;;;;9.40;55.64;100205.50;10463767;28;20327;-69
2022/11/30 07:56:14;;;;;;;51.37;21.83;;;;;;;9.19;56.20;100211.31;10458802;28;20273;-69
2022/11/30 08:01:20;;;;;;;47.20;20.83;;;;;;;8.87;56.45;100218.25;10451192;28;20740;-67
2022/11/30 08:06:29;;;;;;;41.10;18.80;;;;;;;8.73;57.26;100235.69;10450703;28;20235;-67
2022/11/30 08:11:33;;;;;;;45.00;19.97;;;;;;;7.90;58.55;100218.41;10434386;28;20239;-67
2022/11/30 08:16:38;;;;;;;83.80;48.37;;;;;;;9.92;55.01;100129.44;10444081;28;20283;-66
2022/11/30 08:21:40;;;;;;;107.83;85.07;;;;;;;8.30;57.18;100224.13;10450794;28;20240;-67
2022/11/30 08:26:42;;;;;;;30.50;18.90;;;;;;;9.47;55.56;100150.38;10450288;28;21186;-67
2022/11/30 08:31:44;;;;;;;33.23;17.03;;;;;;;9.80;54.61;100144.97;10450059;28;20236;-66
2022/11/30 08:36:46;;;;;;;26.37;15.87;;;;;;;8.84;56.27;100234.53;10450185;28;20224;-67
2022/11/30 08:41:52;;;;;;;25.87;16.17;;;;;;;8.83;55.87;100212.38;10448805;28;20247;-69
2022/11/30 08:46:55;;;;;;;28.67;15.53;;;;;;;7.71;58.26;100203.44;10449954;28;20599;-67
2022/11/30 08:51:56;;;;;;;24.47;15.47;;;;;;;7.62;58.29;100214.19;10458146;28;20240;-67
2022/11/30 08:57:20;;;;;;;23.97;14.43;;;;;;;8.06;57.39;100231.00;10446652;28;20294;-67
2022/11/30 09:02:21;;;;;;;49.17;41.53;;;;;;;8.68;57.14;100219.31;10449479;28;20271;-67
2022/11/30 09:07:23;;;;;;;268.53;185.40;;;;;;;8.79;56.84;100211.03;10448803;28;20742;-68
2022/11/30 09:12:24;;;;;;;38.63;26.50;;;;;;;8.72;56.65;100255.34;10448490;28;20653;-67
2022/11/30 09:17:26;;;;;;;24.47;15.63;;;;;;;7.97;58.12;100255.94;10446382;28;20593;-69
2022/11/30 09:22:28;;;;;;;24.10;16.53;;;;;;;8.80;56.77;100233.19;10448966;28;20289;-67
2022/11/30 09:27:32;;;;;;;23.27;16.13;;;;;;;7.65;58.59;100253.84;10430093;28;20263;-68
2022/11/30 09:32:34;;;;;;;144.73;59.50;;;;;;;7.77;58.69;100257.09;10448386;28;20242;-69
2022/11/30 09:37:35;;;;;;;27.87;21.10;;;;;;;7.72;58.18;100255.72;10447392;28;20628;-69
2022/11/30 09:42:50;;;;;;;19.63;15.63;;;;;;;7.80;58.16;100246.13;10447653;28;20243;-66
2022/11/30 09:47:58;;;;;;;17.57;13.17;;;;;;;6.90;59.46;100187.56;10445745;28;20227;-68
2022/11/30 09:53:06;;;;;;;18.50;13.73;;;;;;;7.56;59.37;100236.97;10456161;28;20591;-67
2022/11/30 09:58:21;;;;;;;20.80;15.07;;;;;;;7.41;59.21;100243.78;10443293;28;20236;-67
2022/11/30 10:03:23;;;;;;;20.60;17.07;;;;;;;6.92;60.52;100228.16;10446924;28;20334;-67
2022/11/30 10:08:49;;;;;;;19.53;14.87;;;;;;;6.69;60.91;100215.25;10446714;28;20236;-67
2022/11/30 10:14:01;;;;;;;21.80;15.67;;;;;;;7.65;59.03;100228.03;10443461;28;20259;-67
2022/11/30 10:19:06;;;;;;;21.90;15.83;;;;;;;7.55;59.28;100213.97;10445304;28;20238;-68
2022/11/30 10:24:28;;;;;;;25.27;18.03;;;;;;;7.94;59.07;100210.13;10446373;28;20238;-67
2022/11/30 10:29:40;;;;;;;18.47;14.10;;;;;;;7.25;60.03;100223.19;10427240;28;20240;-67
2022/11/30 10:34:44;;;;;;;19.63;14.77;;;;;;;8.15;58.53;100170.59;10445267;28;20707;-67
2022/11/30 10:40:03;;;;;;;21.43;16.00;;;;;;;8.67;56.99;100166.94;10444494;28;20653;-67
2022/11/30 10:45:14;;;;;;;24.00;16.60;;;;;;;7.82;58.84;100228.16;10453644;28;20715;-69
2022/11/30 10:50:16;;;;;;;20.00;15.00;;;;;;;7.82;58.71;100228.16;10470411;28;20242;-67
2022/11/30 10:55:30;;;;;;;382.67;158.97;;;;;;;5.80;62.19;100110.28;10464151;28;20597;-69
2022/11/30 11:06:13;;;;;;;23.57;18.07;;;;;;;6.21;64.19;100160.47;10579198;27;21320;-67
2022/11/30 11:11:38;;;;;;;22.23;17.60;;;;;;;5.83;64.94;100164.97;10521907;28;20240;-67
2022/11/30 11:16:55;;;;;;;18.20;14.40;;;;;;;6.46;63.33;100150.97;10512787;28;20237;-67
2022/11/30 11:21:56;;;;;;;24.17;18.10;;;;;;;6.73;62.74;100130.66;10520030;28;20226;-67
2022/11/30 11:26:58;;;;;;;56.70;50.77;;;;;;;6.95;62.20;100138.25;10521546;28;20613;-67
2022/11/30 11:32:18;;;;;;;16.17;12.53;;;;;;;6.44;62.72;100145.81;10522082;28;20238;-67
2022/11/30 11:37:21;;;;;;;30.27;27.20;;;;;;;6.41;63.18;100145.28;10519498;28;20230;-70
2022/11/30 11:42:25;;;;;;;30.30;27.50;;;;;;;6.78;62.61;100142.59;10522222;28;20262;-67
2022/11/30 11:47:39;;;;;;;17.60;13.73;;;;;;;7.13;61.34;100138.22;10521945;28;20796;-67
2022/11/30 11:52:41;;;;;;;17.80;12.63;;;;;;;6.93;62.78;100148.19;10513817;28;20240;-67
2022/11/30 11:57:50;;;;;;;19.60;13.97;;;;;;;7.20;62.31;100133.13;10514529;28;20311;-66
2022/11/30 12:03:18;;;;;;;19.70;15.73;;;;;;;6.41;63.61;100167.41;10518216;28;20644;-69
2022/11/30 12:08:29;;;;;;;15.60;13.33;;;;;;;7.34;62.21;100145.91;10518235;28;20285;-69
2022/11/30 12:13:39;;;;;;;22.13;15.87;;;;;;;6.27;63.28;100173.19;10512881;28;20227;-67
2022/11/30 12:18:51;;;;;;;15.63;13.07;;;;;;;7.02;62.10;100148.28;10486225;28;20277;-69
2022/11/30 12:24:01;;;;;;;15.97;12.63;;;;;;;7.20;62.00;100154.44;10490128;28;20226;-66
2022/11/30 12:29:28;;;;;;;14.70;11.90;;;;;;;6.94;61.98;100141.88;10488414;28;20247;-70
2022/11/30 12:34:53;;;;;;;19.43;15.73;;;;;;;7.17;61.86;100162.72;10490082;28;20246;-70
2022/11/30 12:40:15;;;;;;;26.33;19.43;;;;;;;7.50;60.50;100160.34;10529405;28;20706;-69
2022/11/30 12:45:39;;;;;;;15.50;11.97;;;;;;;7.64;59.63;100165.06;10531901;28;20257;-66
2022/11/30 12:51:19;;;;;;;18.30;15.13;;;;;;;6.88;61.12;100170.94;10530504;28;20238;-66
2022/11/30 12:56:26;;;;;;;15.03;12.20;;;;;;;7.33;60.43;100178.00;10531787;28;20223;-66
2022/11/30 13:01:52;;;;;;;16.23;12.23;;;;;;;7.74;59.92;100194.28;10532473;28;20238;-66
2022/11/30 13:07:01;;;;;;;14.23;11.53;;;;;;;7.32;60.06;100174.47;10530726;28;20233;-69
2022/11/30 13:12:11;;;;;;;17.90;13.93;;;;;;;6.32;61.61;100178.91;10527829;28;20612;-67
2022/11/30 13:17:17;;;;;;;14.60;11.13;;;;;;;7.25;60.21;100199.22;10536294;28;20226;-67
2022/11/30 13:22:44;;;;;;;20.13;16.43;;;;;;;7.42;59.40;100205.53;10544157;28;20230;-69
2022/11/30 13:27:55;;;;;;;224.23;169.60;;;;;;;6.78;61.29;100208.22;10506342;28;20280;-69
2022/11/30 13:33:34;;;;;;;364.73;269.70;;;;;;;6.85;61.05;100208.47;10524144;28;20284;-68
2022/11/30 13:38:35;;;;;;;24.80;21.57;;;;;;;7.50;60.02;100213.59;10528774;28;20242;-68
2022/11/30 13:43:45;;;;;;;16.73;13.50;;;;;;;7.45;60.11;100205.22;10536753;28;20313;-71
2022/11/30 13:49:07;;;;;;;17.67;15.80;;;;;;;6.53;61.72;100213.25;10542076;28;20854;-68
2022/11/30 13:54:43;;;;;;;17.90;13.50;;;;;;;6.72;61.77;100206.16;10546292;28;20603;-70
2022/11/30 13:59:50;;;;;;;16.20;12.57;;;;;;;7.23;60.73;100185.25;10540200;28;20561;-68
2022/11/30 14:04:52;;;;;;;15.63;12.73;;;;;;;7.00;60.80;100191.00;10536986;28;20227;-68
2022/11/30 14:09:56;;;;;;;16.07;12.63;;;;;;;6.89;61.52;100196.56;10528271;28;20294;-65
2022/11/30 14:14:59;;;;;;;17.20;13.50;;;;;;;6.98;60.83;100177.84;10521488;28;20218;-66
2022/11/30 14:20:15;;;;;;;18.40;13.40;;;;;;;7.23;60.66;100193.22;10531280;28;20698;-67
2022/11/30 14:25:19;;;;;;;19.40;16.60;;;;;;;7.71;59.00;100195.44;10530932;28;20238;-70
2022/11/30 14:30:23;;;;;;;16.40;13.30;;;;;;;7.95;58.75;100209.97;10522429;28;20238;-68
2022/11/30 14:35:29;;;;;;;16.97;14.13;;;;;;;6.90;60.69;100225.66;10521438;28;20293;-71
2022/11/30 14:40:31;;;;;;;16.47;13.53;;;;;;;7.34;59.74;100208.94;10526903;28;20230;-70
2022/11/30 14:45:33;;;;;;;18.80;14.70;;;;;;;7.02;60.77;100220.97;10539544;28;20242;-70
2022/11/30 14:50:41;;;;;;;18.03;13.60;;;;;;;7.03;60.23;100197.84;10522343;28;20234;-68
2022/11/30 14:55:58;;;;;;;16.33;12.73;;;;;;;6.65;61.28;100208.56;10531783;28;20253;-69
2022/11/30 15:01:12;;;;;;;15.17;12.07;;;;;;;6.79;61.47;100220.56;10522452;28;20222;-66
2022/11/30 15:06:17;;;;;;;14.70;12.13;;;;;;;6.61;61.93;100226.59;10518717;28;20230;-67
2022/11/30 15:11:20;;;;;;;21.20;13.93;;;;;;;7.16;59.84;100198.31;10512360;28;20231;-67
2022/11/30 15:16:28;;;;;;;20.87;16.60;;;;;;;6.79;62.09;100215.22;10509506;28;20234;-67
2022/11/30 15:21:56;;;;;;;17.43;13.37;;;;;;;7.33;60.62;100224.09;9599666;28;10000947;-69
2022/11/30 15:27:22;;;;;;;17.17;13.93;;;;;;;7.04;60.61;100221.66;10513159;28;20227;-71
2022/11/30 15:32:51;;;;;;;14.37;10.97;;;;;;;6.74;61.98;100236.09;10513874;28;20219;-68
2022/11/30 15:38:23;;;;;;;15.60;12.43;;;;;;;5.97;62.96;100214.13;10537717;28;20230;-71
2022/11/30 15:43:52;;;;;;;16.00;12.90;;;;;;;6.91;61.96;100235.31;10542896;28;20224;-69
2022/11/30 15:49:27;;;;;;;14.97;12.07;;;;;;;5.98;62.60;100208.66;10521113;28;20717;-68
2022/11/30 19:09:01;;;;;;;16.97;11.90;;;;;;;5.77;61.30;100362.03;10530972;28;20230;-66
2022/11/30 19:14:04;;;;;;;14.27;11.30;;;;;;;5.69;60.74;100344.16;10531704;28;20764;-66
2022/11/30 19:19:11;;;;;;;17.33;11.03;;;;;;;6.36;59.46;100347.78;10537721;28;20243;-66
2022/11/30 19:24:14;;;;;;;17.10;12.13;;;;;;;5.81;59.50;100335.09;10553083;28;20302;-66
2022/11/30 19:29:16;;;;;;;14.37;11.07;;;;;;;6.48;58.78;100359.06;10556188;28;20682;-67
2022/11/30 19:34:18;;;;;;;16.80;11.40;;;;;;;5.41;60.32;100359.03;10559764;28;20276;-68
2022/11/30 19:39:19;;;;;;;14.43;11.03;;;;;;;5.82;60.07;100367.78;10545834;28;20234;-69
2022/11/30 19:44:21;;;;;;;12.73;9.70;;;;;;;5.05;60.78;100351.53;10539743;28;20237;-69
2022/11/30 19:49:23;;;;;;;14.13;10.53;;;;;;;5.43;59.62;100373.84;10538758;28;20231;-67
2022/11/30 19:54:24;;;;;;;14.67;10.70;;;;;;;5.88;59.30;100376.03;10531029;28;20226;-72
2022/11/30 19:59:26;;;;;;;15.00;9.53;;;;;;;5.74;59.59;100380.91;10518644;28;20242;-70
2022/11/30 20:04:27;;;;;;;14.93;10.30;;;;;;;4.95;60.55;100387.81;10520377;28;20306;-70
2022/11/30 20:09:29;;;;;;;13.43;9.77;;;;;;;5.85;58.71;100394.91;10521666;28;20234;-68
2022/11/30 20:14:31;;;;;;;12.57;9.33;;;;;;;5.50;59.04;100398.88;10522294;28;20229;-68
2022/11/30 20:19:33;;;;;;;12.10;9.10;;;;;;;4.93;59.87;100411.81;10518996;28;20231;-68
2022/11/30 20:24:35;;;;;;;12.53;9.90;;;;;;;4.54;60.73;100405.41;10519134;28;20226;-68
2022/11/30 20:29:37;;;;;;;13.07;9.27;;;;;;;5.17;60.31;100429.22;10518964;28;20234;-68
2022/11/30 20:34:38;;;;;;;12.73;9.37;;;;;;;5.17;59.60;100423.91;10519129;28;20718;-68
2022/11/30 20:39:44;;;;;;;13.37;9.47;;;;;;;5.07;59.78;100423.03;10533748;28;20240;-68
2022/11/30 20:44:46;;;;;;;12.50;9.03;;;;;;;4.99;59.49;100434.28;10555320;28;20237;-69
2022/11/30 20:49:49;;;;;;;13.40;9.87;;;;;;;5.37;59.22;100424.84;10555270;28;20227;-68
2022/11/30 20:54:50;;;;;;;13.53;9.37;;;;;;;4.75;59.87;100416.84;10556831;28;20580;-70
2022/11/30 20:59:52;;;;;;;11.43;9.00;;;;;;;5.19;58.99;100426.44;10556501;28;20592;-67
2022/11/30 21:04:54;;;;;;;11.17;9.50;;;;;;;5.68;58.48;100430.09;10556497;28;20240;-68
2022/11/30 21:09:57;;;;;;;13.63;10.30;;;;;;;4.07;60.83;100420.78;10549722;28;20226;-69
2022/11/30 21:14:59;;;;;;;13.63;9.83;;;;;;;4.25;59.46;100453.72;10550132;28;20203;-68
2022/11/30 21:20:01;;;;;;;11.83;9.57;;;;;;;4.67;60.04;100451.13;10539119;28;20717;-69
2022/11/30 21:25:02;;;;;;;13.27;9.83;;;;;;;4.85;59.14;100454.03;10550132;28;20234;-67
2022/11/30 21:30:05;;;;;;;13.60;9.27;;;;;;;3.85;60.90;100441.09;10552985;28;20235;-67
2022/11/30 21:35:07;;;;;;;15.87;10.20;;;;;;;4.16;59.77;100455.31;10550982;28;20206;-69
2022/11/30 21:40:09;;;;;;;11.23;8.93;;;;;;;4.55;59.07;100465.44;10556724;28;20676;-69
2022/11/30 21:45:11;;;;;;;12.93;8.70;;;;;;;4.95;58.38;100456.75;10553314;28;20244;-67
2022/11/30 21:50:12;;;;;;;12.30;8.57;;;;;;;4.64;58.38;100461.16;10553728;28;20287;-67
2022/11/30 21:55:14;;;;;;;15.73;8.80;;;;;;;4.48;58.31;100441.25;10554553;28;20617;-67
2022/11/30 22:00:16;;;;;;;13.07;8.57;;;;;;;4.07;59.01;100450.78;10553840;28;20243;-67
2022/11/30 22:05:18;;;;;;;16.30;10.27;;;;;;;3.62;59.86;100437.66;10554473;28;20612;-69
2022/11/30 22:10:20;;;;;;;17.60;11.57;;;;;;;3.52;60.69;100442.00;10537163;28;20816;-67
2022/11/30 22:15:21;;;;;;;18.80;11.43;;;;;;;3.45;60.54;100445.13;10528596;28;20611;-67
2022/11/30 22:20:23;;;;;;;18.60;10.87;;;;;;;4.75;58.55;100443.38;10548302;28;20248;-67
2022/11/30 22:25:25;;;;;;;15.87;10.40;;;;;;;4.66;57.62;100452.13;10551401;28;20233;-70
2022/11/30 22:30:26;;;;;;;15.20;9.93;;;;;;;3.87;59.62;100463.00;10552571;28;20294;-66
2022/11/30 22:35:28;;;;;;;15.10;9.77;;;;;;;5.05;56.85;100451.50;10553472;28;20240;-67
2022/11/30 22:40:29;;;;;;;12.30;8.83;;;;;;;4.26;57.71;100476.59;10551411;28;20225;-67
2022/11/30 22:45:32;;;;;;;12.70;8.47;;;;;;;4.88;56.47;100463.53;10550217;28;20241;-67
2022/11/30 22:50:34;;;;;;;10.77;8.27;;;;;;;4.37;57.65;100470.44;10547120;28;20248;-67
2022/11/30 22:55:35;;;;;;;13.10;7.70;;;;;;;4.52;56.72;100470.97;10548002;28;20229;-67
2022/11/30 23:00:37;;;;;;;12.53;7.77;;;;;;;4.58;56.17;100468.66;10549320;28;20238;-67
2022/11/30 23:05:39;;;;;;;12.10;7.77;;;;;;;4.87;55.77;100467.19;10531291;28;20290;-67
2022/11/30 23:10:41;;;;;;;10.37;6.97;;;;;;;3.52;57.53;100471.94;10535473;28;20718;-67
2022/11/30 23:15:42;;;;;;;10.90;7.87;;;;;;;3.49;57.36;100474.84;10535547;28;20618;-67
2022/11/30 23:20:44;;;;;;;9.83;7.60;;;;;;;3.88;57.00;100488.50;10550801;28;20268;-67
2022/11/30 23:25:46;;;;;;;12.80;8.27;;;;;;;4.23;56.02;100490.09;10550223;28;20234;-67
2022/11/30 23:30:49;;;;;;;10.57;7.20;;;;;;;3.33;56.91;100474.34;10548879;28;20234;-67
2022/11/30 23:35:50;;;;;;;9.83;6.83;;;;;;;4.96;55.24;100495.56;10544033;28;20223;-67
2022/11/30 23:40:52;;;;;;;7.97;6.13;;;;;;;4.27;55.75;100498.63;10542134;28;20234;-67
2022/11/30 23:45:53;;;;;;;9.80;6.83;;;;;;;4.30;55.93;100504.50;10548430;28;20241;-66
2022/11/30 23:50:55;;;;;;;8.93;6.83;;;;;;;3.37;56.00;100487.22;10549263;28;20242;-67
2022/11/30 23:56:04;;;;;;;10.20;7.00;;;;;;;4.06;55.72;100501.25;10550712;28;20235;-67
